createdAt,value
2023-04-24T00:01:00.258Z,11.70
2023-04-24T00:03:30.418Z,11.70
2023-04-24T00:05:57.882Z,11.70
2023-04-24T00:08:25.101Z,11.70
2023-04-24T00:10:54.004Z,11.60
2023-04-24T00:13:20.938Z,11.70
2023-04-24T00:15:48.551Z,11.60
2023-04-24T00:18:15.626Z,11.60
2023-04-24T00:20:42.655Z,11.60
2023-04-24T00:23:09.573Z,11.60
2023-04-24T00:25:36.618Z,11.60
2023-04-24T00:28:03.580Z,11.60
2023-04-24T00:30:30.680Z,11.60
2023-04-24T00:32:58.155Z,11.60
2023-04-24T00:35:25.200Z,11.60
2023-04-24T00:37:52.184Z,11.60
2023-04-24T00:40:19.173Z,11.60
2023-04-24T00:42:46.384Z,11.50
2023-04-24T00:45:13.738Z,11.50
2023-04-24T00:47:40.806Z,11.50
2023-04-24T00:50:08.209Z,11.50
2023-04-24T00:52:35.461Z,11.50
2023-04-24T00:55:02.531Z,11.50
2023-04-24T00:57:29.757Z,11.50
2023-04-24T00:59:56.821Z,11.50
2023-04-24T01:02:24.284Z,11.50
2023-04-24T01:04:54.571Z,11.50
2023-04-24T01:07:22.419Z,11.50
2023-04-24T01:09:50.284Z,11.50
2023-04-24T01:12:17.263Z,11.50
2023-04-24T01:14:44.239Z,11.60
2023-04-24T01:17:12.215Z,11.50
2023-04-24T01:19:39.416Z,11.50
2023-04-24T01:22:14.057Z,11.50
2023-04-24T01:24:41.118Z,11.50
2023-04-24T01:27:08.518Z,11.50
2023-04-24T01:29:35.747Z,11.50
2023-04-24T01:32:03.252Z,11.50
2023-04-24T01:34:30.316Z,11.50
2023-04-24T01:36:57.775Z,11.50
2023-04-24T01:39:26.885Z,11.50
2023-04-24T01:41:54.896Z,11.50
2023-04-24T01:44:22.176Z,11.50
2023-04-24T01:46:49.181Z,11.50
2023-04-24T01:49:16.814Z,11.40
2023-04-24T01:51:43.871Z,11.50
2023-04-24T01:54:10.886Z,11.50
2023-04-24T01:56:40.697Z,11.40
2023-04-24T01:59:08.607Z,11.40
2023-04-24T02:01:37.465Z,11.40
2023-04-24T02:04:05.156Z,11.40
2023-04-24T02:06:32.678Z,11.40
2023-04-24T02:08:59.993Z,11.40
2023-04-24T02:11:27.069Z,11.40
2023-04-24T02:13:54.224Z,11.40
2023-04-24T02:16:21.260Z,11.40
2023-04-24T02:18:48.286Z,11.40
2023-04-24T02:21:15.290Z,11.30
2023-04-24T02:23:42.256Z,11.30
2023-04-24T02:26:09.361Z,11.30
2023-04-24T02:28:36.301Z,11.30
2023-04-24T02:31:03.355Z,11.30
2023-04-24T02:33:30.367Z,11.30
2023-04-24T02:35:57.319Z,11.30
2023-04-24T02:38:24.314Z,11.30
2023-04-24T02:40:51.347Z,11.30
2023-04-24T02:43:18.255Z,11.30
2023-04-24T02:45:45.329Z,11.40
2023-04-24T02:48:12.389Z,11.30
2023-04-24T02:50:39.358Z,11.30
2023-04-24T02:53:06.582Z,11.30
2023-04-24T02:55:33.556Z,11.20
2023-04-24T02:58:00.451Z,11.20
2023-04-24T03:00:27.386Z,11.30
2023-04-24T03:02:54.637Z,11.20
2023-04-24T03:05:21.694Z,11.20
2023-04-24T03:07:49.246Z,11.10
2023-04-24T03:10:16.223Z,11.00
2023-04-24T03:12:43.186Z,11.10
2023-04-24T03:15:10.295Z,11.00
2023-04-24T03:17:38.241Z,11.00
2023-04-24T03:20:06.839Z,11.00
2023-04-24T03:22:34.948Z,11.00
2023-04-24T03:25:02.408Z,11.00
2023-04-24T03:27:29.355Z,11.00
2023-04-24T03:29:59.210Z,11.00
2023-04-24T03:32:26.239Z,11.00
2023-04-24T03:34:53.176Z,11.00
2023-04-24T03:37:20.094Z,11.00
2023-04-24T03:39:47.274Z,10.90
2023-04-24T03:42:14.259Z,10.90
2023-04-24T03:44:41.283Z,10.90
2023-04-24T03:47:08.297Z,10.90
2023-04-24T03:49:35.257Z,10.90
2023-04-24T03:52:02.657Z,10.90
2023-04-24T03:54:29.647Z,10.90
2023-04-24T03:56:56.573Z,10.80
2023-04-24T03:59:23.511Z,10.90
2023-04-24T04:01:50.640Z,10.80
2023-04-24T04:04:17.964Z,10.90
2023-04-24T04:06:45.508Z,10.80
2023-04-24T04:09:12.463Z,10.80
2023-04-24T04:11:39.451Z,10.80
2023-04-24T04:14:06.617Z,10.80
2023-04-24T04:16:33.898Z,10.80
2023-04-24T04:19:00.980Z,10.80
2023-04-24T04:21:28.364Z,10.80
2023-04-24T04:23:55.301Z,10.70
2023-04-24T04:26:22.445Z,10.70
2023-04-24T04:28:50.238Z,10.70
2023-04-24T04:31:17.514Z,10.70
2023-04-24T04:33:44.612Z,10.70
2023-04-24T04:36:11.645Z,10.70
2023-04-24T04:38:38.702Z,10.70
2023-04-24T04:41:05.716Z,10.70
2023-04-24T04:43:33.913Z,10.70
2023-04-24T04:46:02.018Z,10.70
2023-04-24T04:48:29.888Z,10.70
2023-04-24T04:50:56.809Z,10.70
2023-04-24T04:53:24.071Z,10.60
2023-04-24T04:55:51.108Z,10.60
2023-04-24T04:58:18.176Z,10.60
2023-04-24T05:00:45.448Z,10.60
2023-04-24T05:03:20.929Z,10.60
2023-04-24T05:05:48.808Z,10.60
2023-04-24T05:08:26.552Z,10.60
2023-04-24T05:10:54.444Z,10.60
2023-04-24T05:13:28.295Z,10.60
2023-04-24T05:15:59.525Z,10.60
2023-04-24T05:18:26.501Z,10.50
2023-04-24T05:20:53.436Z,10.50
2023-04-24T05:23:20.414Z,10.60
2023-04-24T05:25:47.697Z,10.60
2023-04-24T05:28:14.660Z,10.60
2023-04-24T05:30:41.803Z,10.50
2023-04-24T05:33:09.918Z,10.50
2023-04-24T05:35:36.977Z,10.50
2023-04-24T05:38:04.375Z,10.50
2023-04-24T05:40:31.409Z,10.50
2023-04-24T05:42:58.458Z,10.50
2023-04-24T05:45:25.534Z,10.50
2023-04-24T05:47:53.868Z,10.40
2023-04-24T05:50:21.169Z,10.40
2023-04-24T05:52:48.098Z,10.40
2023-04-24T05:55:15.192Z,10.30
2023-04-24T05:57:42.210Z,10.40
2023-04-24T06:00:09.860Z,10.30
2023-04-24T06:02:37.411Z,10.30
2023-04-24T06:05:05.981Z,10.30
2023-04-24T06:07:33.127Z,10.30
2023-04-24T06:10:00.101Z,10.30
2023-04-24T06:12:30.292Z,10.30
2023-04-24T06:15:01.014Z,10.30
2023-04-24T06:17:28.006Z,10.20
2023-04-24T06:19:55.027Z,10.20
2023-04-24T06:22:22.026Z,10.20
2023-04-24T06:24:49.857Z,10.20
2023-04-24T06:27:16.782Z,10.20
2023-04-24T06:29:44.140Z,10.20
2023-04-24T06:32:11.326Z,10.30
2023-04-24T06:34:38.333Z,10.20
2023-04-24T06:37:05.282Z,10.20
2023-04-24T06:39:32.327Z,10.30
2023-04-24T06:41:59.864Z,10.30
2023-04-24T06:44:26.839Z,10.30
2023-04-24T06:46:53.802Z,10.30
2023-04-24T06:49:21.408Z,10.30
2023-04-24T06:51:48.786Z,10.30
2023-04-24T06:54:15.933Z,10.30
2023-04-24T06:56:43.134Z,10.30
2023-04-24T06:59:10.100Z,10.30
2023-04-24T07:01:37.336Z,10.30
2023-04-24T07:04:04.357Z,10.40
2023-04-24T07:06:33.007Z,10.30
2023-04-24T07:09:01.535Z,10.40
2023-04-24T07:11:30.577Z,10.30
2023-04-24T07:13:57.580Z,10.40
2023-04-24T07:16:24.595Z,10.40
2023-04-24T07:18:51.782Z,10.50
2023-04-24T07:21:18.715Z,10.50
2023-04-24T07:23:45.859Z,10.50
2023-04-24T07:26:12.819Z,10.50
2023-04-24T07:28:39.908Z,10.50
2023-04-24T07:31:07.000Z,10.60
2023-04-24T07:33:34.126Z,10.50
2023-04-24T07:36:01.471Z,10.50
2023-04-24T07:38:30.589Z,10.50
2023-04-24T07:40:57.541Z,10.50
2023-04-24T07:43:25.020Z,10.50
2023-04-24T07:45:52.584Z,10.50
2023-04-24T07:48:19.675Z,10.40
2023-04-24T07:50:46.723Z,10.50
2023-04-24T07:53:13.699Z,10.50
2023-04-24T07:55:41.281Z,10.50
2023-04-24T07:58:08.261Z,10.60
2023-04-24T08:00:35.229Z,10.60
2023-04-24T08:03:02.530Z,10.70
2023-04-24T08:05:30.036Z,10.70
2023-04-24T08:07:57.171Z,10.80
2023-04-24T08:10:24.489Z,10.80
2023-04-24T08:12:51.507Z,10.90
2023-04-24T08:15:18.968Z,11.00
2023-04-24T08:17:45.924Z,11.10
2023-04-24T08:20:16.772Z,11.20
2023-04-24T08:22:44.447Z,11.20
2023-04-24T08:25:12.214Z,11.20
2023-04-24T08:27:40.074Z,11.20
2023-04-24T08:30:07.661Z,11.30
2023-04-24T08:32:34.836Z,11.40
2023-04-24T08:35:01.892Z,11.50
2023-04-24T08:37:28.901Z,11.50
2023-04-24T08:39:56.103Z,11.60
2023-04-24T08:42:23.198Z,11.70
2023-04-24T08:44:50.960Z,11.70
2023-04-24T08:47:18.943Z,11.70
2023-04-24T08:49:46.904Z,11.60
2023-04-24T08:52:14.366Z,11.50
2023-04-24T08:54:42.531Z,11.50
2023-04-24T08:57:12.236Z,11.50
2023-04-24T08:59:39.289Z,11.50
2023-04-24T09:02:06.675Z,11.50
2023-04-24T09:04:35.154Z,11.50
2023-04-24T09:07:02.609Z,11.50
2023-04-24T09:09:31.474Z,11.50
2023-04-24T09:11:59.329Z,11.40
2023-04-24T09:14:27.115Z,11.40
2023-04-24T09:16:54.108Z,11.50
2023-04-24T09:19:23.034Z,11.50
2023-04-24T09:21:50.011Z,11.60
2023-04-24T09:24:22.114Z,11.70
2023-04-24T09:26:49.182Z,11.90
2023-04-24T09:29:19.500Z,12.00
2023-04-24T09:31:46.931Z,12.10
2023-04-24T09:34:14.051Z,12.20
2023-04-24T09:36:42.732Z,12.20
2023-04-24T09:39:13.862Z,12.20
2023-04-24T09:41:51.113Z,12.20
2023-04-24T09:44:19.346Z,12.30
2023-04-24T09:46:50.969Z,12.30
2023-04-24T09:49:21.587Z,12.30
2023-04-24T09:51:48.632Z,12.30
2023-04-24T09:54:17.304Z,12.30
2023-04-24T09:56:46.502Z,12.30
2023-04-24T09:59:14.897Z,12.30
2023-04-24T10:01:44.963Z,12.20
2023-04-24T10:04:19.598Z,12.10
2023-04-24T10:06:46.750Z,12.10
2023-04-24T10:09:15.172Z,12.10
2023-04-24T10:11:43.357Z,12.00
2023-04-24T10:14:12.250Z,12.00
2023-04-24T10:16:40.704Z,12.10
2023-04-24T10:19:08.103Z,12.30
2023-04-24T10:21:35.936Z,12.40
2023-04-24T10:24:04.937Z,12.50
2023-04-24T10:26:32.663Z,12.50
2023-04-24T10:29:00.215Z,12.50
2023-04-24T10:31:27.494Z,12.50
2023-04-24T10:33:55.024Z,12.50
2023-04-24T10:36:23.749Z,12.60
2023-04-24T10:38:51.425Z,12.70
2023-04-24T10:41:21.008Z,12.90
2023-04-24T10:43:49.896Z,13.00
2023-04-24T10:46:22.875Z,13.00
2023-04-24T10:48:53.918Z,12.90
2023-04-24T10:51:22.914Z,12.70
2023-04-24T10:53:51.472Z,12.70
2023-04-24T10:56:18.802Z,12.60
2023-04-24T10:58:53.571Z,12.60
2023-04-24T11:01:31.036Z,12.70
2023-04-24T11:03:59.398Z,12.70
2023-04-24T11:06:33.247Z,12.70
2023-04-24T11:09:16.682Z,12.60
2023-04-24T11:11:47.628Z,12.70
2023-04-24T11:14:17.493Z,12.90
2023-04-24T11:17:02.619Z,13.00
2023-04-24T11:19:32.365Z,13.10
2023-04-24T11:22:03.910Z,13.20
2023-04-24T11:24:33.741Z,13.30
2023-04-24T11:27:15.389Z,13.30
2023-04-24T11:29:44.251Z,13.40
2023-04-24T11:32:20.100Z,13.50
2023-04-24T11:34:48.044Z,13.50
2023-04-24T11:37:15.374Z,13.60
2023-04-24T11:39:42.428Z,13.70
2023-04-24T11:42:10.577Z,13.70
2023-04-24T11:44:38.615Z,13.80
2023-04-24T11:47:06.453Z,14.00
2023-04-24T11:49:33.747Z,14.20
2023-04-24T11:52:04.066Z,14.50
2023-04-24T11:54:31.169Z,14.50
2023-04-24T11:56:58.582Z,14.60
2023-04-24T11:59:25.645Z,14.50
2023-04-24T12:01:52.730Z,14.50
2023-04-24T12:04:20.604Z,14.40
2023-04-24T12:07:09.870Z,14.40
2023-04-24T12:09:44.156Z,14.40
2023-04-24T12:12:13.335Z,14.30
2023-04-24T12:14:44.520Z,14.30
2023-04-24T12:17:11.545Z,14.10
2023-04-24T12:19:38.514Z,14.10
2023-04-24T12:22:06.536Z,14.00
2023-04-24T12:24:33.677Z,14.10
2023-04-24T12:27:02.789Z,14.00
2023-04-24T12:29:29.732Z,13.90
2023-04-24T12:31:56.796Z,13.90
2023-04-24T12:34:24.801Z,13.90
2023-04-24T12:36:51.836Z,14.00
2023-04-24T12:39:20.488Z,14.10
2023-04-24T12:42:05.391Z,14.10
2023-04-24T12:44:33.153Z,14.10
2023-04-24T12:47:00.361Z,14.20
2023-04-24T12:49:27.684Z,14.30
2023-04-24T12:51:54.965Z,14.40
2023-04-24T12:54:22.073Z,14.40
2023-04-24T12:56:49.080Z,14.50
2023-04-24T12:59:16.125Z,14.50
2023-04-24T13:01:43.130Z,14.50
2023-04-24T13:04:10.440Z,14.50
2023-04-24T13:06:37.637Z,14.60
2023-04-24T13:09:05.064Z,14.70
2023-04-24T13:11:32.168Z,14.80
2023-04-24T13:13:59.314Z,14.90
2023-04-24T13:16:26.331Z,14.90
2023-04-24T13:18:53.606Z,15.00
2023-04-24T13:21:20.798Z,15.30
2023-04-24T13:23:47.778Z,15.30
2023-04-24T13:26:14.779Z,15.30
2023-04-24T13:28:41.954Z,15.20
2023-04-24T13:31:09.053Z,15.30
2023-04-24T13:33:36.026Z,15.50
2023-04-24T13:36:03.836Z,15.50
2023-04-24T13:38:30.773Z,15.50
2023-04-24T13:40:57.923Z,15.60
2023-04-24T13:43:24.926Z,15.50
2023-04-24T13:45:51.936Z,15.40
2023-04-24T13:48:19.258Z,15.50
2023-04-24T13:50:46.230Z,15.60
2023-04-24T13:53:13.173Z,15.60
2023-04-24T13:55:40.508Z,15.70
2023-04-24T13:58:07.890Z,15.80
2023-04-24T14:00:34.870Z,16.00
2023-04-24T14:03:02.272Z,16.20
2023-04-24T14:05:29.409Z,16.30
2023-04-24T14:07:56.488Z,16.20
2023-04-24T14:10:23.839Z,16.00
2023-04-24T14:12:50.941Z,16.20
2023-04-24T14:15:18.097Z,16.30
2023-04-24T14:17:45.122Z,16.40
2023-04-24T14:20:13.447Z,16.60
2023-04-24T14:22:40.407Z,16.70
2023-04-24T14:25:08.173Z,16.80
2023-04-24T14:27:36.039Z,17.00
2023-04-24T14:30:03.234Z,17.10
2023-04-24T14:32:30.354Z,17.10
2023-04-24T14:34:57.577Z,17.10
2023-04-24T14:37:24.538Z,17.20
2023-04-24T14:40:06.247Z,17.30
2023-04-24T14:42:38.426Z,17.30
2023-04-24T14:45:06.108Z,17.30
2023-04-24T14:47:33.109Z,17.50
2023-04-24T14:50:00.326Z,17.50
2023-04-24T14:52:27.498Z,17.60
2023-04-24T14:54:54.440Z,17.60
2023-04-24T14:57:21.590Z,17.70
2023-04-24T14:59:48.586Z,17.60
2023-04-24T15:02:17.695Z,17.60
2023-04-24T15:04:46.332Z,17.60
2023-04-24T15:07:13.428Z,17.50
2023-04-24T15:09:41.102Z,17.60
2023-04-24T15:12:08.125Z,17.50
2023-04-24T15:14:35.102Z,17.50
2023-04-24T15:17:02.157Z,17.50
2023-04-24T15:19:29.108Z,17.40
2023-04-24T15:21:56.111Z,17.00
2023-04-24T15:24:23.081Z,16.90
2023-04-24T15:26:50.101Z,16.80
2023-04-24T15:29:17.474Z,16.80
2023-04-24T15:31:44.622Z,16.90
2023-04-24T15:34:11.955Z,16.90
2023-04-24T15:36:38.962Z,17.00
2023-04-24T15:39:07.754Z,17.10
2023-04-24T15:41:36.503Z,17.00
2023-04-24T15:44:03.654Z,17.10
2023-04-24T15:46:30.994Z,17.20
2023-04-24T15:48:58.222Z,17.30
2023-04-24T15:51:25.187Z,17.20
2023-04-24T15:53:52.410Z,17.30
2023-04-24T15:56:20.278Z,17.30
2023-04-24T15:58:47.492Z,17.50
2023-04-24T16:01:14.724Z,17.60
2023-04-24T16:03:42.304Z,17.50
2023-04-24T16:06:09.403Z,17.60
2023-04-24T16:08:36.783Z,17.80
2023-04-24T16:11:03.766Z,17.80
2023-04-24T16:13:32.312Z,17.60
2023-04-24T16:15:59.540Z,17.40
2023-04-24T16:18:26.716Z,17.20
2023-04-24T16:20:54.173Z,17.00
2023-04-24T16:23:21.176Z,16.80
2023-04-24T16:25:48.677Z,16.60
2023-04-24T16:28:15.676Z,16.40
2023-04-24T16:30:42.732Z,16.40
2023-04-24T16:33:11.213Z,16.30
2023-04-24T16:35:38.234Z,16.10
2023-04-24T16:38:05.216Z,15.90
2023-04-24T16:40:32.288Z,15.60
2023-04-24T16:42:59.210Z,15.50
2023-04-24T16:45:26.270Z,15.40
2023-04-24T16:47:53.396Z,15.20
2023-04-24T16:50:20.573Z,15.10
2023-04-24T16:52:47.636Z,15.00
2023-04-24T16:55:14.663Z,14.90
2023-04-24T16:57:41.716Z,14.80
2023-04-24T17:00:09.223Z,14.60
2023-04-24T17:02:36.378Z,14.60
2023-04-24T17:05:03.383Z,14.50
2023-04-24T17:07:31.335Z,14.40
2023-04-24T17:09:58.396Z,14.30
2023-04-24T17:12:25.300Z,14.30
2023-04-24T17:14:52.326Z,14.30
2023-04-24T17:17:20.910Z,14.40
2023-04-24T17:19:47.869Z,14.30
2023-04-24T17:22:14.870Z,14.30
2023-04-24T17:24:41.952Z,14.20
2023-04-24T17:27:15.028Z,14.20
2023-04-24T17:29:42.965Z,14.30
2023-04-24T17:32:10.335Z,14.40
2023-04-24T17:34:37.513Z,14.40
2023-04-24T17:37:05.090Z,14.40
2023-04-24T17:39:32.247Z,14.30
2023-04-24T17:41:59.272Z,14.30
2023-04-24T17:44:26.313Z,14.30
2023-04-24T17:46:53.353Z,14.20
2023-04-24T17:49:20.325Z,14.00
2023-04-24T17:51:47.296Z,14.00
2023-04-24T17:54:15.452Z,13.90
2023-04-24T17:56:44.052Z,13.80
2023-04-24T17:59:11.047Z,13.70
2023-04-24T18:01:38.260Z,13.50
2023-04-24T18:04:05.598Z,13.40
2023-04-24T18:06:32.847Z,13.30
2023-04-24T18:08:59.900Z,13.20
2023-04-24T18:11:27.145Z,13.10
2023-04-24T18:13:54.147Z,13.10
2023-04-24T18:16:22.256Z,13.00
2023-04-24T18:18:50.992Z,13.00
2023-04-24T18:21:18.230Z,13.00
2023-04-24T18:23:46.579Z,12.90
2023-04-24T18:26:17.377Z,12.80
2023-04-24T18:28:44.749Z,12.60
2023-04-24T18:31:11.809Z,12.60
2023-04-24T18:33:38.819Z,12.60
2023-04-24T18:36:05.899Z,12.50
2023-04-24T18:38:33.009Z,12.50
2023-04-24T18:40:59.986Z,12.40
2023-04-24T18:43:27.376Z,12.40
2023-04-24T18:45:54.386Z,12.20
2023-04-24T18:48:21.660Z,12.10
2023-04-24T18:50:48.722Z,12.10
2023-04-24T18:53:18.432Z,12.10
2023-04-24T18:55:45.585Z,12.00
2023-04-24T18:58:12.609Z,12.00
2023-04-24T19:00:39.756Z,12.00
2023-04-24T19:03:09.131Z,11.90
2023-04-24T19:05:36.322Z,11.90
2023-04-24T19:08:03.303Z,11.80
2023-04-24T19:10:31.301Z,11.80
2023-04-24T19:12:58.286Z,11.80
2023-04-24T19:15:26.158Z,11.70
2023-04-24T19:17:53.563Z,11.70
2023-04-24T19:20:21.182Z,11.70
2023-04-24T19:22:48.168Z,11.60
2023-04-24T19:25:15.159Z,11.50
2023-04-24T19:27:42.201Z,11.50
2023-04-24T19:30:09.660Z,11.40
2023-04-24T19:32:36.683Z,11.40
2023-04-24T19:35:04.121Z,11.40
2023-04-24T19:37:32.529Z,11.30
2023-04-24T19:39:59.450Z,11.30
2023-04-24T19:42:39.826Z,11.30
2023-04-24T19:45:12.041Z,11.20
2023-04-24T19:47:39.439Z,11.10
2023-04-24T19:50:06.878Z,11.10
2023-04-24T19:52:33.955Z,11.00
2023-04-24T19:55:01.220Z,11.00
2023-04-24T19:57:28.281Z,11.00
2023-04-24T19:59:55.234Z,11.00
2023-04-24T20:02:22.448Z,11.00
2023-04-24T20:04:50.127Z,11.00
2023-04-24T20:07:17.636Z,11.00
2023-04-24T20:09:46.926Z,10.90
2023-04-24T20:12:13.952Z,10.90
2023-04-24T20:14:40.914Z,10.90
2023-04-24T20:17:08.175Z,10.80
2023-04-24T20:19:35.411Z,10.80
2023-04-24T20:22:02.483Z,10.80
2023-04-24T20:24:29.459Z,10.80
2023-04-24T20:26:57.386Z,10.70
2023-04-24T20:29:24.368Z,10.70
2023-04-24T20:31:51.467Z,10.70
2023-04-24T20:34:18.960Z,10.70
2023-04-24T20:36:49.380Z,10.70
2023-04-24T20:39:17.226Z,10.80
2023-04-24T20:41:44.383Z,11.10
2023-04-24T20:44:12.348Z,11.30
2023-04-24T20:46:39.600Z,11.40
2023-04-24T20:49:06.674Z,11.50
2023-04-24T20:51:33.949Z,11.60
2023-04-24T20:54:01.120Z,11.70
2023-04-24T20:56:28.036Z,11.80
2023-04-24T20:58:56.934Z,11.80
2023-04-24T21:01:24.566Z,11.90
2023-04-24T21:03:53.235Z,12.00
2023-04-24T21:06:20.431Z,12.00
2023-04-24T21:08:47.411Z,12.00
2023-04-24T21:11:14.394Z,12.10
2023-04-24T21:13:45.115Z,12.10
2023-04-24T21:16:12.089Z,12.20
2023-04-24T21:18:41.445Z,12.20
2023-04-24T21:21:09.556Z,12.20
2023-04-24T21:23:36.691Z,12.20
2023-04-24T21:26:04.162Z,12.20
2023-04-24T21:28:31.570Z,12.20
2023-04-24T21:30:58.612Z,12.20
2023-04-24T21:33:25.885Z,12.20
2023-04-24T21:35:52.855Z,12.10
2023-04-24T21:38:23.353Z,12.10
2023-04-24T21:40:51.169Z,12.10
2023-04-24T21:43:19.082Z,12.10
2023-04-24T21:45:46.718Z,12.10
2023-04-24T21:48:14.081Z,12.00
2023-04-24T21:50:41.102Z,12.00
2023-04-24T21:53:08.112Z,12.00
2023-04-24T21:55:35.089Z,11.90
2023-04-24T21:58:02.274Z,11.90
2023-04-24T22:00:29.488Z,11.90
2023-04-24T22:02:56.502Z,11.80
2023-04-24T22:05:24.026Z,11.70
2023-04-24T22:07:51.276Z,11.70
2023-04-24T22:10:18.267Z,11.70
2023-04-24T22:12:45.278Z,11.60
2023-04-24T22:15:12.271Z,11.60
2023-04-24T22:17:39.813Z,11.50
2023-04-24T22:20:07.706Z,11.50
2023-04-24T22:22:35.091Z,11.40
2023-04-24T22:25:02.252Z,11.40
2023-04-24T22:27:29.294Z,11.30
2023-04-24T22:29:56.781Z,11.30
2023-04-24T22:32:23.954Z,11.30
2023-04-24T22:34:50.979Z,11.20
2023-04-24T22:37:17.955Z,11.20
2023-04-24T22:39:44.930Z,11.10
2023-04-24T22:42:11.973Z,11.10
2023-04-24T22:44:38.894Z,11.00
2023-04-24T22:47:08.652Z,11.00
2023-04-24T22:49:36.043Z,11.00
2023-04-24T22:52:05.962Z,10.90
2023-04-24T22:54:33.819Z,10.90
2023-04-24T22:57:01.423Z,10.80
2023-04-24T22:59:28.407Z,10.80
2023-04-24T23:01:56.327Z,10.70
2023-04-24T23:04:23.463Z,10.70
2023-04-24T23:06:50.463Z,10.70
2023-04-24T23:09:17.429Z,10.70
2023-04-24T23:11:44.454Z,10.60
2023-04-24T23:14:11.533Z,10.60
2023-04-24T23:16:39.817Z,10.60
2023-04-24T23:19:07.030Z,10.50
2023-04-24T23:21:34.097Z,10.50
2023-04-24T23:24:01.202Z,10.50
2023-04-24T23:26:28.269Z,10.50
2023-04-24T23:28:55.244Z,10.50
2023-04-24T23:31:22.192Z,10.50
2023-04-24T23:33:49.640Z,10.40
2023-04-24T23:36:17.301Z,10.40
2023-04-24T23:38:50.224Z,10.40
2023-04-24T23:41:18.511Z,10.40
2023-04-24T23:43:45.508Z,10.40
2023-04-24T23:46:12.920Z,10.40
2023-04-24T23:48:39.885Z,10.40
2023-04-24T23:51:06.879Z,10.40
2023-04-24T23:53:33.863Z,10.40
2023-04-24T23:56:01.106Z,10.30
2023-04-24T23:58:28.074Z,10.30
